Time;durP1;ratioP1;P1;durP2;ratioP2;P2;SDS_P1;SDS_P2;PMS_P1;PMS_P2;Temp;Humidity;BMP_temperature;BMP_pressure;BME280_temperature;BME280_humidity;BME280_pressure;Samples;Min_cycle;Max_cycle;Signal;HPM_P1;HPM_P2
2022/04/13 00:01:24;;;;;;;10.70;4.30;;;13.00;62.20;;;;;;5034669;28;20022;-79
2022/04/13 00:03:50;;;;;;;4.78;3.15;;;13.00;62.20;;;;;;5034552;28;20183;-78
2022/04/13 00:06:15;;;;;;;7.70;3.67;;;13.00;62.20;;;;;;5034645;28;20041;-78
2022/04/13 00:08:43;;;;;;;10.00;3.83;;;12.90;62.10;;;;;;5034626;28;20026;-78
2022/04/13 00:11:09;;;;;;;6.53;3.88;;;12.90;62.10;;;;;;5034525;28;20497;-78
2022/04/13 00:13:35;;;;;;;4.78;3.22;;;12.90;62.40;;;;;;5034288;28;20025;-77
2022/04/13 00:16:00;;;;;;;6.72;3.30;;;12.90;62.30;;;;;;5034424;28;20034;-78
2022/04/13 00:18:26;;;;;;;6.97;3.40;;;12.90;63.20;;;;;;5033544;28;20060;-78
2022/04/13 00:20:51;;;;;;;5.88;3.47;;;12.90;62.30;;;;;;5034410;28;20037;-78
2022/04/13 00:23:17;;;;;;;7.88;3.50;;;12.90;62.20;;;;;;5034321;28;20021;-79
2022/04/13 00:25:43;;;;;;;7.80;4.10;;;12.90;62.30;;;;;;5033952;28;20033;-78
2022/04/13 00:28:10;;;;;;;8.15;3.88;;;12.80;62.20;;;;;;5034102;28;20076;-78
2022/04/13 00:30:36;;;;;;;4.72;3.15;;;12.80;61.90;;;;;;5034153;28;20029;-78
2022/04/13 00:33:03;;;;;;;5.15;3.50;;;12.70;62.10;;;;;;5034306;28;20027;-78
2022/04/13 00:35:29;;;;;;;5.53;3.72;;;12.80;62.40;;;;;;5034300;28;20030;-78
2022/04/13 00:37:54;;;;;;;5.15;3.17;;;12.70;62.70;;;;;;5034337;28;20029;-79
2022/04/13 00:40:20;;;;;;;9.60;3.10;;;12.70;63.00;;;;;;5034051;28;20041;-78
2022/04/13 00:42:46;;;;;;;9.35;3.35;;;12.70;63.10;;;;;;5034110;28;20029;-79
2022/04/13 00:45:11;;;;;;;6.68;3.47;;;12.70;64.20;;;;;;5033886;28;20060;-79
2022/04/13 00:47:39;;;;;;;4.63;3.15;;;12.60;63.40;;;;;;5033896;28;20486;-79
2022/04/13 00:50:06;;;;;;;5.75;3.45;;;12.60;63.80;;;;;;5034233;28;20387;-79
2022/04/13 00:52:35;;;;;;;6.65;3.25;;;12.50;63.70;;;;;;5033321;28;20025;-78
2022/04/13 00:55:03;;;;;;;7.10;3.42;;;12.60;63.60;;;;;;5033718;28;20068;-77
2022/04/13 00:57:32;;;;;;;7.57;3.50;;;12.50;63.70;;;;;;5033611;28;20391;-77
2022/04/13 01:00:01;;;;;;;7.88;3.42;;;12.50;64.70;;;;;;5034659;28;20372;-73
2022/04/13 01:02:29;;;;;;;5.32;3.10;;;12.50;63.90;;;;;;5033228;28;20022;-77
2022/04/13 01:04:57;;;;;;;5.93;3.33;;;12.50;63.60;;;;;;5033411;28;20049;-75
2022/04/13 01:07:24;;;;;;;7.65;3.83;;;12.60;63.40;;;;;;5033186;28;20120;-73
2022/04/13 01:09:50;;;;;;;5.20;3.10;;;12.50;63.50;;;;;;5032870;28;20033;-74
2022/04/13 01:12:16;;;;;;;8.15;3.22;;;12.50;63.60;;;;;;5033353;28;20108;-73
2022/04/13 01:14:41;;;;;;;5.97;3.55;;;12.50;63.60;;;;;;5033725;28;20121;-78
2022/04/13 01:17:07;;;;;;;6.03;3.50;;;12.50;63.80;;;;;;5033504;28;20021;-76
2022/04/13 01:19:33;;;;;;;6.78;3.25;;;12.40;63.90;;;;;;5033128;28;20050;-78
2022/04/13 01:22:03;;;;;;;5.63;3.35;;;12.40;64.20;;;;;;5033159;28;20028;-78
2022/04/13 01:24:29;;;;;;;5.70;3.08;;;12.40;64.20;;;;;;5033294;28;20032;-78
2022/04/13 01:26:55;;;;;;;7.15;3.33;;;12.30;64.80;;;;;;5033152;28;20026;-77
2022/04/13 01:29:21;;;;;;;4.45;2.97;;;12.20;65.10;;;;;;5033011;28;20063;-77
2022/04/13 01:31:48;;;;;;;6.40;3.38;;;12.10;65.70;;;;;;5033342;28;20025;-77
2022/04/13 01:34:13;;;;;;;5.55;3.47;;;12.00;66.00;;;;;;5032903;28;20119;-76
2022/04/13 01:36:39;;;;;;;7.97;3.20;;;12.00;66.00;;;;;;5032817;28;20499;-77
2022/04/13 01:39:06;;;;;;;10.32;3.78;;;12.00;65.90;;;;;;5032560;28;20079;-77
2022/04/13 01:41:32;;;;;;;5.57;2.90;;;12.00;65.80;;;;;;5032724;28;20383;-77
2022/04/13 01:43:58;;;;;;;6.80;3.20;;;12.00;65.80;;;;;;5032838;28;20022;-77
2022/04/13 01:46:24;;;;;;;4.90;3.13;;;12.00;65.70;;;;;;5032949;28;20021;-76
2022/04/13 01:48:49;;;;;;;5.93;3.00;;;12.00;65.80;;;;;;5032719;28;20029;-78
2022/04/13 01:51:17;;;;;;;5.55;3.00;;;12.00;66.00;;;;;;5032926;28;20389;-78
2022/04/13 01:53:43;;;;;;;4.93;3.17;;;11.90;67.10;;;;;;5032742;28;20025;-74
2022/04/13 01:56:08;;;;;;;4.45;2.95;;;12.00;66.20;;;;;;5032283;28;20080;-75
2022/04/13 01:58:34;;;;;;;7.53;3.58;;;12.00;66.40;;;;;;5032207;28;20029;-74
2022/04/13 02:01:00;;;;;;;7.32;3.53;;;11.90;66.50;;;;;;5032734;28;20037;-75
2022/04/13 02:03:26;;;;;;;5.13;2.97;;;11.90;66.80;;;;;;5032648;28;20021;-76
2022/04/13 02:05:54;;;;;;;7.35;3.35;;;11.80;66.80;;;;;;5032211;28;20049;-75
2022/04/13 02:08:20;;;;;;;5.65;2.95;;;11.80;66.80;;;;;;5032744;28;20030;-76
2022/04/13 02:10:46;;;;;;;7.57;3.53;;;11.70;67.10;;;;;;5032307;28;20025;-76
2022/04/13 02:13:11;;;;;;;6.68;3.20;;;11.70;67.30;;;;;;5032669;28;20530;-76
2022/04/13 02:15:38;;;;;;;7.43;3.63;;;11.60;67.10;;;;;;5032478;28;20075;-76
2022/04/13 02:18:04;;;;;;;7.40;3.65;;;11.60;67.40;;;;;;5032171;28;20481;-78
2022/04/13 02:20:30;;;;;;;6.80;3.72;;;11.60;67.40;;;;;;5031811;28;20413;-75
2022/04/13 02:22:56;;;;;;;5.78;3.38;;;11.60;67.50;;;;;;5031966;28;20018;-77
2022/04/13 02:25:21;;;;;;;8.88;3.75;;;11.60;67.50;;;;;;5031860;28;20463;-76
2022/04/13 02:27:47;;;;;;;6.43;3.58;;;11.50;67.50;;;;;;5032408;28;20025;-77
2022/04/13 02:30:17;;;;;;;6.15;3.75;;;11.50;67.50;;;;;;5032257;28;20021;-80
2022/04/13 02:32:44;;;;;;;5.88;3.13;;;11.50;67.60;;;;;;5031999;28;20021;-77
2022/04/13 02:35:10;;;;;;;3.85;2.90;;;11.50;67.60;;;;;;5031955;28;20025;-78
2022/04/13 02:37:36;;;;;;;6.97;2.75;;;11.50;67.70;;;;;;5033509;28;20025;-79
2022/04/13 02:40:03;;;;;;;5.15;2.88;;;11.50;67.30;;;;;;5031053;28;20045;-79
2022/04/13 02:42:33;;;;;;;6.05;3.03;;;11.50;67.40;;;;;;5031631;28;20026;-80
2022/04/13 02:45:00;;;;;;;4.03;2.55;;;11.50;67.20;;;;;;5032077;28;20025;-78
2022/04/13 02:47:26;;;;;;;7.25;3.00;;;11.50;67.20;;;;;;5031665;28;20075;-79
2022/04/13 02:49:51;;;;;;;6.78;2.80;;;11.50;67.20;;;;;;5031867;28;20025;-79
2022/04/13 02:52:17;;;;;;;3.65;2.50;;;11.50;67.20;;;;;;5031594;28;20025;-78
2022/04/13 02:54:43;;;;;;;6.55;3.80;;;11.50;67.20;;;;;;5031614;28;20085;-78
2022/04/13 02:57:08;;;;;;;4.20;2.78;;;11.40;67.70;;;;;;5031685;28;20505;-78
2022/04/13 02:59:34;;;;;;;6.55;3.13;;;11.30;68.20;;;;;;5031830;28;20037;-78
2022/04/13 03:01:59;;;;;;;5.53;3.25;;;11.20;68.80;;;;;;5031660;28;20427;-78
2022/04/13 03:04:25;;;;;;;7.70;4.53;;;11.20;69.50;;;;;;5031411;28;20075;-77
2022/04/13 03:06:50;;;;;;;7.60;3.65;;;11.00;70.40;;;;;;5031821;28;20041;-78
2022/04/13 03:09:16;;;;;;;5.57;3.75;;;11.00;70.90;;;;;;5031572;28;20030;-78
2022/04/13 03:11:42;;;;;;;8.77;3.53;;;10.90;71.20;;;;;;5031505;28;20471;-78
2022/04/13 03:14:07;;;;;;;6.22;4.07;;;11.00;71.10;;;;;;5031554;28;20057;-78
2022/04/13 03:16:34;;;;;;;5.43;3.47;;;11.00;70.90;;;;;;5031425;28;20018;-78
2022/04/13 03:19:01;;;;;;;6.68;3.22;;;11.00;70.10;;;;;;5031203;28;20596;-77
2022/04/13 03:21:27;;;;;;;8.30;3.50;;;11.00;69.60;;;;;;5031465;28;20068;-78
2022/04/13 03:23:52;;;;;;;6.75;3.63;;;10.90;69.60;;;;;;5031697;28;20024;-77
2022/04/13 03:26:18;;;;;;;7.80;3.45;;;10.90;70.00;;;;;;5031443;28;20029;-77
2022/04/13 03:28:44;;;;;;;5.95;3.13;;;10.90;69.80;;;;;;5031362;28;20033;-77
2022/04/13 03:31:09;;;;;;;4.53;2.60;;;11.00;69.70;;;;;;5032203;28;20379;-77
2022/04/13 03:33:35;;;;;;;4.78;2.90;;;11.00;69.50;;;;;;5035236;28;20076;-77
2022/04/13 03:36:00;;;;;;;4.05;2.60;;;11.00;69.40;;;;;;5035081;28;20017;-77
2022/04/13 03:38:26;;;;;;;3.85;2.42;;;11.10;69.30;;;;;;5035299;28;20468;-78
2022/04/13 03:40:52;;;;;;;5.82;3.15;;;11.10;69.30;;;;;;5034830;28;20035;-79
2022/04/13 03:43:17;;;;;;;6.53;3.28;;;11.10;69.20;;;;;;5034926;28;20026;-78
2022/04/13 03:45:43;;;;;;;5.10;2.88;;;11.10;69.30;;;;;;5035167;28;20391;-78
2022/04/13 03:48:10;;;;;;;7.85;2.30;;;11.00;69.40;;;;;;5034954;28;20204;-77
2022/04/13 03:50:35;;;;;;;8.90;2.80;;;10.90;69.50;;;;;;5034929;28;20029;-78
2022/04/13 03:53:01;;;;;;;4.38;2.55;;;10.90;69.60;;;;;;5035120;28;20018;-79
2022/04/13 03:55:27;;;;;;;5.50;2.97;;;10.90;69.60;;;;;;5035656;28;20026;-78
2022/04/13 03:57:53;;;;;;;3.65;2.45;;;10.80;69.70;;;;;;5036104;28;20029;-77
2022/04/13 04:00:18;;;;;;;6.88;3.00;;;10.70;69.90;;;;;;5017978;28;20041;-78
2022/04/13 04:02:44;;;;;;;5.93;2.53;;;10.60;70.30;;;;;;5017583;28;20038;-78
2022/04/13 04:05:12;;;;;;;5.88;2.65;;;10.60;70.50;;;;;;5017544;28;20538;-75
2022/04/13 04:07:38;;;;;;;3.63;2.30;;;10.60;70.70;;;;;;5034182;28;20017;-75
2022/04/13 04:10:04;;;;;;;5.03;2.80;;;10.60;70.60;;;;;;5034765;28;20028;-75
2022/04/13 04:12:36;;;;;;;7.25;2.83;;;10.60;70.40;;;;;;5034468;28;20060;-75
2022/04/13 04:15:02;;;;;;;3.95;2.33;;;10.60;70.20;;;;;;5034566;28;20099;-76
2022/04/13 04:17:28;;;;;;;5.72;3.22;;;10.60;70.10;;;;;;5034197;28;20068;-75
2022/04/13 04:19:53;;;;;;;6.05;3.72;;;10.50;70.20;;;;;;5033855;28;20040;-77
2022/04/13 04:22:19;;;;;;;7.00;3.75;;;10.40;70.40;;;;;;5039780;28;20467;-76
2022/04/13 04:24:45;;;;;;;10.38;4.00;;;10.40;71.00;;;;;;5034532;28;20033;-75
2022/04/13 04:27:10;;;;;;;8.10;2.92;;;10.30;71.10;;;;;;5033961;28;20118;-78
2022/04/13 04:29:36;;;;;;;6.55;3.40;;;10.30;71.40;;;;;;5034035;28;20056;-74
2022/04/13 04:32:02;;;;;;;8.15;3.20;;;10.20;71.10;;;;;;5033709;28;20049;-76
2022/04/13 04:34:30;;;;;;;9.13;3.40;;;10.20;71.20;;;;;;5033191;28;20064;-76
2022/04/13 04:36:55;;;;;;;11.93;3.88;;;10.30;71.20;;;;;;5034206;28;20021;-77
2022/04/13 04:39:21;;;;;;;10.32;4.00;;;10.30;72.10;;;;;;5034153;28;20087;-75
2022/04/13 04:41:47;;;;;;;10.10;4.20;;;10.30;71.20;;;;;;5033609;28;20025;-77
2022/04/13 04:44:12;;;;;;;8.05;3.63;;;10.20;71.30;;;;;;5033849;28;20029;-77
2022/04/13 04:46:38;;;;;;;6.05;3.58;;;10.10;71.40;;;;;;5033951;28;20117;-77
2022/04/13 04:49:05;;;;;;;9.27;3.53;;;10.20;71.50;;;;;;5033781;28;20025;-78
2022/04/13 04:51:31;;;;;;;7.88;3.38;;;10.20;71.50;;;;;;5033592;28;20026;-78
2022/04/13 04:53:58;;;;;;;6.32;3.10;;;10.20;71.50;;;;;;5033524;28;20475;-75
2022/04/13 04:56:23;;;;;;;4.63;3.42;;;10.30;71.50;;;;;;5033513;28;20030;-77
2022/04/13 04:58:49;;;;;;;6.28;2.75;;;10.30;71.10;;;;;;5033494;28;20044;-76
2022/04/13 05:01:15;;;;;;;5.10;2.65;;;10.30;71.00;;;;;;5033473;28;20069;-77
2022/04/13 05:03:43;;;;;;;6.00;2.60;;;10.40;70.70;;;;;;5033239;28;20032;-80
2022/04/13 05:06:09;;;;;;;5.50;2.50;;;10.40;70.50;;;;;;5033002;28;20079;-78
2022/04/13 05:08:34;;;;;;;5.70;2.22;;;10.50;70.30;;;;;;5032970;28;20022;-78
2022/04/13 05:11:01;;;;;;;10.02;2.67;;;10.50;70.80;;;;;;5033245;28;20471;-79
2022/04/13 05:13:26;;;;;;;6.03;2.60;;;10.50;70.00;;;;;;5033265;28;20036;-78
2022/04/13 05:15:53;;;;;;;6.82;2.70;;;10.50;70.20;;;;;;5016567;28;20030;-77
2022/04/13 05:18:19;;;;;;;3.67;2.13;;;10.50;70.10;;;;;;5032772;28;20024;-77
2022/04/13 05:20:45;;;;;;;6.28;2.40;;;10.50;69.90;;;;;;5033087;28;20546;-78
2022/04/13 05:23:12;;;;;;;6.07;2.33;;;10.60;69.50;;;;;;5033207;28;20021;-78
2022/04/13 05:25:37;;;;;;;6.15;2.10;;;10.60;69.10;;;;;;5032845;28;20037;-77
2022/04/13 05:28:03;;;;;;;5.25;2.40;;;10.70;68.90;;;;;;5033429;28;20021;-77
2022/04/13 05:30:29;;;;;;;6.43;2.28;;;10.70;68.80;;;;;;5032013;28;20535;-78
2022/04/13 05:32:58;;;;;;;5.50;2.63;;;10.80;68.60;;;;;;5032164;28;20037;-77
2022/04/13 05:35:25;;;;;;;4.32;2.25;;;10.90;68.40;;;;;;5032200;28;20021;-76
2022/04/13 05:37:51;;;;;;;5.90;2.25;;;10.90;68.00;;;;;;5032584;28;20033;-76
2022/04/13 05:40:17;;;;;;;3.33;2.00;;;11.00;67.80;;;;;;5032652;28;20038;-76
2022/04/13 05:42:43;;;;;;;8.63;3.00;;;11.00;67.70;;;;;;5032381;28;20040;-78
2022/04/13 05:45:10;;;;;;;7.60;3.33;;;11.10;67.80;;;;;;5032597;28;20387;-75
2022/04/13 05:47:38;;;;;;;5.40;2.35;;;11.00;67.80;;;;;;5032064;28;20025;-77
2022/04/13 05:50:04;;;;;;;5.25;2.40;;;11.10;67.70;;;;;;5031948;28;20102;-77
2022/04/13 05:52:30;;;;;;;6.55;2.95;;;11.20;67.50;;;;;;5032021;28;20045;-74
2022/04/13 05:54:56;;;;;;;6.65;2.83;;;11.20;67.20;;;;;;5031632;28;20022;-75
2022/04/13 05:57:34;;;;;;;9.23;2.55;;;11.40;67.00;;;;;;5032185;28;20033;-77
2022/04/13 06:00:00;;;;;;;5.15;2.60;;;11.50;66.50;;;;;;5031577;28;20091;-76
2022/04/13 06:02:26;;;;;;;9.38;2.10;;;11.70;65.90;;;;;;5015512;28;20025;-77
2022/04/13 06:04:51;;;;;;;7.07;2.30;;;11.70;65.20;;;;;;5031784;28;20053;-77
2022/04/13 06:07:18;;;;;;;6.25;2.33;;;11.90;64.70;;;;;;5031976;28;20065;-76
2022/04/13 06:09:43;;;;;;;8.43;2.38;;;11.90;64.40;;;;;;5032222;28;20366;-76
2022/04/13 06:12:09;;;;;;;7.80;2.75;;;12.00;64.30;;;;;;5031627;28;20076;-76
2022/04/13 06:14:35;;;;;;;6.30;2.67;;;12.20;64.10;;;;;;5032252;28;20028;-77
2022/04/13 06:17:03;;;;;;;14.13;3.13;;;12.30;63.80;;;;;;5032058;28;20380;-76
2022/04/13 06:19:28;;;;;;;10.60;2.50;;;12.60;64.70;;;;;;5031142;28;20037;-76
2022/04/13 06:21:54;;;;;;;4.40;2.22;;;12.90;63.10;;;;;;5031438;28;20028;-77
2022/04/13 06:24:19;;;;;;;3.95;1.98;;;13.20;62.30;;;;;;5031935;28;20025;-77
2022/04/13 06:26:46;;;;;;;5.10;2.05;;;13.40;61.60;;;;;;5031655;28;20026;-76
2022/04/13 06:29:12;;;;;;;6.85;2.80;;;13.50;60.70;;;;;;5031452;28;20057;-76
2022/04/13 06:31:37;;;;;;;8.52;2.55;;;13.70;59.90;;;;;;5015973;28;20438;-77
2022/04/13 06:34:05;;;;;;;5.43;2.53;;;13.80;59.80;;;;;;5032249;28;20124;-78
2022/04/13 06:36:33;;;;;;;5.00;2.17;;;13.90;58.50;;;;;;5030499;28;20038;-78
2022/04/13 06:38:58;;;;;;;9.63;2.70;;;14.00;58.40;;;;;;5031537;28;20032;-76
2022/04/13 06:41:24;;;;;;;6.45;3.20;;;14.00;58.00;;;;;;5032082;28;20120;-77
2022/04/13 06:43:53;;;;;;;7.70;3.20;;;14.10;58.60;;;;;;5031650;28;20029;-77
2022/04/13 06:46:19;;;;;;;9.05;3.05;;;14.20;57.60;;;;;;5031126;28;20178;-77
2022/04/13 06:48:45;;;;;;;10.65;3.40;;;14.20;57.00;;;;;;5038664;28;20102;-78
2022/04/13 06:51:11;;;;;;;7.38;3.70;;;14.40;57.10;;;;;;5031242;28;20486;-77
2022/04/13 06:53:36;;;;;;;8.85;3.67;;;14.60;56.50;;;;;;5051198;28;20475;-77
2022/04/13 06:56:03;;;;;;;9.40;2.90;;;14.60;55.60;;;;;;5050903;28;20021;-79
2022/04/13 06:58:30;;;;;;;6.45;2.72;;;14.50;55.80;;;;;;5050953;28;20112;-78
2022/04/13 07:00:57;;;;;;;9.95;3.08;;;14.50;55.80;;;;;;5049536;28;20133;-77
2022/04/13 07:03:25;;;;;;;9.82;2.90;;;14.60;56.20;;;;;;5050352;28;20382;-77
2022/04/13 07:05:52;;;;;;;3.63;2.90;;;14.70;56.60;;;;;;5034261;28;20550;-79
2022/04/13 07:08:17;;;;;;;5.82;3.20;;;14.80;56.40;;;;;;5038072;28;20029;-77
2022/04/13 07:10:53;;;;;;;4.90;3.05;;;14.90;56.20;;;;;;5056606;28;20029;-79
2022/04/13 07:13:20;;;;;;;5.82;2.30;;;15.10;55.90;;;;;;5056591;28;20040;-77
2022/04/13 07:15:52;;;;;;;3.90;2.30;;;15.20;55.80;;;;;;5055627;28;20025;-78
2022/04/13 07:18:20;;;;;;;6.90;2.55;;;15.30;55.60;;;;;;5039462;28;20075;-78
2022/04/13 07:20:46;;;;;;;4.13;2.78;;;15.50;55.10;;;;;;5047911;28;20552;-76
2022/04/13 07:23:11;;;;;;;4.60;2.60;;;15.70;54.50;;;;;;5055137;28;20028;-77
2022/04/13 07:25:37;;;;;;;5.32;2.45;;;15.90;53.70;;;;;;5055020;28;20036;-77
2022/04/13 07:28:03;;;;;;;4.53;2.40;;;16.00;53.40;;;;;;5054912;28;20108;-77
2022/04/13 07:30:28;;;;;;;6.15;2.55;;;16.10;53.00;;;;;;5054573;28;20025;-77
2022/04/13 07:33:01;;;;;;;3.85;2.10;;;16.30;52.20;;;;;;5054358;28;20025;-77
2022/04/13 07:35:29;;;;;;;5.63;2.30;;;16.40;51.70;;;;;;5054634;28;20111;-78
2022/04/13 07:37:55;;;;;;;3.60;2.08;;;16.60;51.30;;;;;;5054740;28;20021;-77
2022/04/13 07:40:21;;;;;;;4.80;2.13;;;16.70;51.50;;;;;;5054697;28;20033;-77
2022/04/13 07:42:47;;;;;;;7.03;3.53;;;16.80;51.00;;;;;;5054772;28;20032;-76
2022/04/13 07:45:13;;;;;;;4.65;3.28;;;16.90;51.40;;;;;;5054622;28;20098;-77
2022/04/13 07:47:39;;;;;;;12.40;7.22;;;17.10;49.90;;;;;;5054839;28;20056;-77
2022/04/13 07:50:12;;;;;;;25.10;11.73;;;17.20;49.40;;;;;;5052983;28;20079;-77
2022/04/13 07:52:40;;;;;;;10.63;5.90;;;17.30;49.10;;;;;;5069321;28;20450;-77
2022/04/13 07:55:06;;;;;;;6.70;4.40;;;17.20;48.70;;;;;;5054227;28;20528;-77
2022/04/13 07:57:32;;;;;;;8.00;4.00;;;17.20;49.20;;;;;;5054292;28;20493;-77
2022/04/13 07:59:58;;;;;;;12.90;5.15;;;17.30;49.60;;;;;;5054362;28;20059;-76
2022/04/13 08:02:24;;;;;;;13.18;3.80;;;17.30;50.30;;;;;;5054642;28;20025;-77
2022/04/13 08:04:49;;;;;;;16.10;4.47;;;17.40;50.40;;;;;;5054518;28;20098;-77
2022/04/13 08:07:15;;;;;;;14.32;4.60;;;17.50;51.20;;;;;;5054168;28;20029;-78
2022/04/13 08:09:42;;;;;;;17.98;4.55;;;17.60;51.30;;;;;;5054599;28;20025;-77
2022/04/13 08:12:08;;;;;;;13.93;4.13;;;17.60;51.10;;;;;;5054571;28;20458;-78
2022/04/13 08:14:33;;;;;;;12.80;4.20;;;17.60;50.90;;;;;;5054474;28;20490;-77
2022/04/13 08:17:03;;;;;;;7.72;3.15;;;17.60;52.00;;;;;;5053471;28;20030;-77
2022/04/13 08:19:29;;;;;;;12.20;4.03;;;17.70;50.00;;;;;;5053802;28;20090;-77
2022/04/13 08:21:55;;;;;;;7.05;3.33;;;17.70;49.50;;;;;;5053725;28;20028;-77
2022/04/13 08:24:20;;;;;;;9.02;3.25;;;17.90;49.20;;;;;;5054154;28;20062;-77
2022/04/13 08:26:46;;;;;;;9.20;3.47;;;18.00;48.30;;;;;;5053909;28;20017;-77
2022/04/13 08:29:12;;;;;;;8.82;3.50;;;18.10;48.40;;;;;;5054264;28;20071;-77
2022/04/13 08:31:37;;;;;;;8.93;3.25;;;18.30;48.00;;;;;;5053887;28;20021;-77
2022/04/13 08:34:03;;;;;;;8.52;4.03;;;18.50;47.50;;;;;;5054130;28;20118;-77
2022/04/13 08:36:29;;;;;;;5.90;3.30;;;18.50;47.00;;;;;;5054307;28;20025;-77
2022/04/13 08:38:56;;;;;;;9.40;3.28;;;18.50;47.60;;;;;;5053821;28;20024;-76
2022/04/13 08:41:47;;;;;;;4.85;3.05;;;18.70;47.10;;;;;;5053853;28;20497;-77
2022/04/13 08:44:43;;;;;;;6.43;2.90;;;18.80;46.70;;;;;;5053880;28;20021;-77
2022/04/13 08:47:12;;;;;;;10.50;3.40;;;18.90;48.30;;;;;;5053409;28;20032;-76
2022/04/13 08:49:40;;;;;;;5.63;3.15;;;18.90;46.30;;;;;;5053212;28;20029;-77
2022/04/13 08:52:08;;;;;;;4.30;2.72;;;19.00;47.90;;;;;;5053293;28;20025;-77
2022/04/13 08:54:57;;;;;;;4.30;2.47;;;19.20;47.30;;;;;;5052955;28;20028;-77
2022/04/13 08:57:24;;;;;;;4.07;2.20;;;19.20;47.60;;;;;;5045105;28;20040;-77
2022/04/13 09:00:10;;;;;;;6.72;2.25;;;19.30;46.40;;;;;;5052961;28;20033;-77
2022/04/13 09:02:45;;;;;;;10.00;2.72;;;19.50;43.40;;;;;;5052921;28;20020;-77
2022/04/13 09:05:18;;;;;;;8.27;2.72;;;19.50;44.20;;;;;;5052851;28;20057;-76
2022/04/13 09:07:48;;;;;;;7.95;2.65;;;19.50;44.80;;;;;;5053355;28;20035;-77
2022/04/13 09:10:19;;;;;;;7.97;2.65;;;19.60;44.70;;;;;;5052452;28;20075;-77
2022/04/13 09:12:46;;;;;;;8.32;2.95;;;19.80;44.50;;;;;;5052547;28;20025;-77
2022/04/13 09:15:13;;;;;;;7.47;2.95;;;19.90;44.50;;;;;;5052579;28;20036;-78
2022/04/13 09:17:40;;;;;;;8.15;2.72;;;20.10;44.00;;;;;;5052993;28;20044;-77
2022/04/13 09:20:07;;;;;;;6.72;2.88;;;20.30;43.10;;;;;;5053010;28;20040;-77
2022/04/13 09:22:34;;;;;;;7.05;2.28;;;20.30;43.40;;;;;;5052145;28;20021;-76
2022/04/13 09:25:01;;;;;;;5.03;2.80;;;20.40;43.90;;;;;;5052838;28;20036;-78
2022/04/13 09:27:27;;;;;;;10.43;3.45;;;20.50;43.50;;;;;;5052794;28;20374;-78
2022/04/13 09:29:53;;;;;;;10.23;2.50;;;20.60;44.60;;;;;;5051897;28;20033;-78
2022/04/13 09:32:19;;;;;;;5.68;2.15;;;20.80;42.60;;;;;;5051924;28;20112;-78
2022/04/13 09:34:45;;;;;;;8.00;2.22;;;20.90;41.60;;;;;;5050984;28;20024;-78
2022/04/13 09:37:11;;;;;;;6.03;2.10;;;21.00;40.40;;;;;;5050920;28;20387;-74
2022/04/13 09:39:38;;;;;;;10.10;2.42;;;21.20;40.40;;;;;;5045170;28;20494;-74
2022/04/13 09:42:04;;;;;;;7.95;2.42;;;21.30;40.00;;;;;;5051465;28;20025;-77
2022/04/13 09:44:32;;;;;;;9.65;2.53;;;21.50;40.50;;;;;;5050980;28;20052;-77
2022/04/13 09:47:12;;;;;;;8.65;2.25;;;21.60;40.00;;;;;;5051746;28;20033;-77
2022/04/13 09:49:46;;;;;;;9.23;2.35;;;21.60;40.30;;;;;;5052100;28;20031;-75
2022/04/13 09:52:12;;;;;;;8.80;2.35;;;21.60;39.20;;;;;;5051927;28;20116;-76
2022/04/13 09:54:48;;;;;;;9.15;1.98;;;21.70;37.90;;;;;;5051539;28;20455;-80
2022/04/13 09:57:24;;;;;;;5.43;2.10;;;21.80;38.70;;;;;;5052376;28;20071;-78
2022/04/13 09:59:54;;;;;;;3.92;1.75;;;21.80;38.00;;;;;;5051625;28;20025;-78
2022/04/13 10:02:34;;;;;;;8.15;2.08;;;22.00;37.20;;;;;;5052211;28;20021;-78
2022/04/13 10:05:00;;;;;;;4.93;1.55;;;22.30;37.80;;;;;;5051818;28;20087;-78
2022/04/13 10:07:25;;;;;;;5.57;1.95;;;22.20;36.30;;;;;;5052348;28;20059;-78
2022/04/13 10:09:51;;;;;;;7.25;1.83;;;22.10;36.90;;;;;;5052784;28;20043;-77
2022/04/13 10:12:16;;;;;;;12.35;2.35;;;22.00;35.80;;;;;;5051830;28;20032;-77
2022/04/13 10:14:43;;;;;;;6.53;2.28;;;22.10;35.80;;;;;;5051692;28;20040;-75
2022/04/13 10:17:15;;;;;;;5.47;2.05;;;22.40;35.80;;;;;;5062766;28;20029;-77
2022/04/13 10:19:42;;;;;;;11.20;2.03;;;22.50;34.60;;;;;;5052364;28;20036;-78
2022/04/13 10:22:08;;;;;;;8.10;1.98;;;22.70;34.50;;;;;;5051699;28;20021;-76
2022/04/13 10:24:39;;;;;;;7.00;2.05;;;22.80;33.90;;;;;;5051432;28;20025;-78
2022/04/13 10:27:15;;;;;;;8.02;1.70;;;22.80;33.30;;;;;;5051470;28;20363;-79
2022/04/13 10:29:47;;;;;;;5.47;1.75;;;22.90;32.70;;;;;;5052718;28;20029;-74
2022/04/13 10:32:15;;;;;;;10.38;1.77;;;23.00;32.30;;;;;;5051840;28;20441;-78
2022/04/13 10:34:46;;;;;;;6.43;1.50;;;22.90;32.40;;;;;;5051949;28;20025;-74
2022/04/13 10:37:14;;;;;;;4.28;1.38;;;22.90;31.50;;;;;;5051748;28;20025;-77
2022/04/13 10:39:41;;;;;;;8.65;2.08;;;23.10;31.00;;;;;;5051148;28;20036;-76
2022/04/13 10:42:12;;;;;;;6.55;1.80;;;22.90;30.60;;;;;;5051598;28;20070;-76
2022/04/13 10:44:48;;;;;;;5.78;1.65;;;22.80;31.50;;;;;;5051521;28;20025;-77
2022/04/13 10:47:20;;;;;;;3.83;1.50;;;23.10;31.60;;;;;;5051048;28;20032;-77
2022/04/13 10:49:55;;;;;;;3.50;1.80;;;23.40;31.30;;;;;;5051441;28;20029;-79
2022/04/13 10:52:34;;;;;;;5.18;1.63;;;23.50;32.30;;;;;;5051059;28;20051;-76
2022/04/13 10:55:07;;;;;;;4.18;1.55;;;23.40;33.50;;;;;;5051474;28;20029;-76
2022/04/13 10:57:46;;;;;;;11.38;1.67;;;23.50;33.00;;;;;;5050863;28;20025;-77
2022/04/13 11:00:18;;;;;;;7.20;1.85;;;23.60;32.50;;;;;;5050809;28;20041;-75
2022/04/13 11:03:02;;;;;;;8.98;2.00;;;23.50;32.40;;;;;;5051300;28;20028;-74
2022/04/13 11:05:30;;;;;;;7.90;1.95;;;23.70;31.90;;;;;;5050530;28;20049;-76
2022/04/13 11:08:35;;;;;;;5.80;1.98;;;23.80;32.60;;;;;;5051303;28;20132;-76
2022/04/13 11:11:02;;;;;;;4.63;1.88;;;23.70;32.80;;;;;;5051277;28;20043;-73
2022/04/13 11:13:32;;;;;;;4.22;1.77;;;23.50;30.80;;;;;;5051066;28;20052;-73
2022/04/13 11:16:14;;;;;;;5.45;1.65;;;23.60;30.50;;;;;;5050820;28;20079;-73
2022/04/13 11:18:39;;;;;;;5.47;1.70;;;23.80;30.40;;;;;;5050745;28;20029;-73
2022/04/13 11:21:06;;;;;;;8.05;1.75;;;24.20;29.80;;;;;;5051354;28;20028;-75
2022/04/13 11:23:50;;;;;;;8.40;1.70;;;24.50;28.90;;;;;;5050948;28;20059;-75
2022/04/13 11:26:26;;;;;;;11.73;2.30;;;24.70;28.40;;;;;;5051263;28;20027;-75
2022/04/13 11:29:15;;;;;;;3.85;1.90;;;24.40;29.70;;;;;;5050830;28;20120;-74
2022/04/13 11:32:04;;;;;;;5.43;2.40;;;24.40;30.20;;;;;;5050867;28;20036;-75
2022/04/13 11:34:36;;;;;;;8.68;1.70;;;24.90;30.00;;;;;;5051940;28;20118;-73
2022/04/13 11:37:04;;;;;;;5.25;1.70;;;25.20;28.40;;;;;;5051082;28;20021;-74
2022/04/13 11:39:50;;;;;;;6.07;2.03;;;25.60;27.90;;;;;;5050462;28;20177;-75
2022/04/13 11:42:17;;;;;;;6.63;1.58;;;26.00;26.90;;;;;;5051112;28;20025;-75
2022/04/13 11:44:47;;;;;;;8.00;1.80;;;25.80;25.70;;;;;;5050297;28;20028;-75
2022/04/13 11:47:18;;;;;;;5.75;2.28;;;26.00;26.50;;;;;;5047832;28;20043;-74
2022/04/13 11:49:56;;;;;;;10.55;1.75;;;26.20;26.00;;;;;;5049483;28;20051;-74
2022/04/13 11:52:44;;;;;;;10.00;1.60;;;26.50;25.00;;;;;;5050944;28;20135;-75
2022/04/13 11:55:39;;;;;;;13.50;2.15;;;26.60;24.30;;;;;;5054193;28;20025;-75
2022/04/13 11:58:05;;;;;;;4.20;1.45;;;26.40;24.80;;;;;;5044577;28;20056;-77
2022/04/13 12:01:09;;;;;;;10.02;2.13;;;26.70;25.30;;;;;;5052641;28;20513;-76
2022/04/13 12:03:40;;;;;;;6.65;1.63;;;27.00;24.80;;;;;;4945587;29;20114;-76
2022/04/13 12:06:10;;;;;;;7.25;1.70;;;27.30;23.50;;;;;;5017210;28;20041;-77
2022/04/13 12:08:46;;;;;;;12.90;2.40;;;27.60;23.80;;;;;;5050653;28;20049;-75
2022/04/13 12:11:20;;;;;;;7.60;1.90;;;27.80;22.20;;;;;;5050164;28;20030;-75
2022/04/13 12:13:55;;;;;;;8.48;1.73;;;27.90;21.50;;;;;;5049676;28;20037;-77
2022/04/13 12:16:30;;;;;;;4.53;1.52;;;27.80;21.50;;;;;;5035162;28;20501;-76
2022/04/13 12:19:07;;;;;;;8.98;1.83;;;27.90;21.90;;;;;;5050566;28;20128;-75
2022/04/13 12:21:36;;;;;;;7.85;1.85;;;28.10;22.70;;;;;;5050421;28;20026;-75
2022/04/13 12:24:06;;;;;;;6.28;2.05;;;28.40;22.00;;;;;;5050629;28;20045;-76
2022/04/13 12:26:41;;;;;;;10.77;3.20;;;28.60;21.40;;;;;;5050238;28;20025;-75
2022/04/13 12:29:15;;;;;;;8.60;2.58;;;28.60;20.50;;;;;;5050212;28;20026;-76
2022/04/13 12:31:51;;;;;;;7.95;2.30;;;28.70;20.70;;;;;;5033462;28;20498;-76
2022/04/13 12:34:18;;;;;;;10.80;2.50;;;28.80;20.80;;;;;;5049775;28;20124;-77
2022/04/13 12:37:10;;;;;;;9.18;2.05;;;29.00;20.90;;;;;;5050288;28;20018;-76
2022/04/13 12:39:36;;;;;;;6.55;2.03;;;29.10;19.80;;;;;;5046671;28;20061;-76
2022/04/13 12:42:03;;;;;;;8.13;1.90;;;29.10;19.20;;;;;;5049633;28;20034;-75
2022/04/13 12:44:29;;;;;;;9.75;2.25;;;29.00;18.30;;;;;;5049676;28;20032;-76
2022/04/13 12:47:06;;;;;;;11.90;1.63;;;29.00;17.70;;;;;;5050021;28;20117;-77
2022/04/13 12:49:31;;;;;;;10.82;1.95;;;29.00;17.80;;;;;;5050305;28;20037;-76
2022/04/13 12:51:57;;;;;;;9.20;2.00;;;29.10;18.20;;;;;;5049924;28;20497;-75